DAAJ/DJG METAR and TAF weather

Enter ICAO airport designator
Station Type Date Time Source
DAAJ METAR 2020/04/06 08:00 UTC NOAA

DAAJ 060800Z 20004KT 5000 NSC 24/M06 Q1019


Station Type Date Time Source
DAAJ Decoded METAR 2020/04/06 08:00 UTC NOAA

Djanet, Algeria (DAAJ) 24-33N 009-28E 1054M
Apr 06, 2020 - 04:00 AM EDT / 2020.04.06 0800 UTC
Wind: from the SSW (200 degrees) at 5 MPH (4 KT):0
Visibility: 3 mile(s):0
Temperature: 75 F (24 C)
Dew Point: 21 F (-6 C)
Relative Humidity: 13%
Pressure (altimeter): 30.09 in. Hg (1019 hPa)
ob: DAAJ 060800Z 20004KT 5000 NSC 24/M06 Q1019
cycle: 8

Station Type Date Time Source
DAAJ TAF 2020/04/06 06:33 UTC NOAA

TAF DAAJ 060500Z 0606/0706 06010KT 6000 NSC PROB30
TEMPO 0606/0609 4000 HZ PROB40
TEMPO 0618/0624 05015G25KT 3000 DRSA

Example: see airport list